createdAt,value
2022-09-20T00:01:47.692Z,14.00
2022-09-20T00:04:11.591Z,14.10
2022-09-20T00:06:36.597Z,14.10
2022-09-20T00:09:01.455Z,14.00
2022-09-20T00:11:28.509Z,14.00
2022-09-20T00:13:56.332Z,14.10
2022-09-20T00:16:24.058Z,14.10
2022-09-20T00:18:50.777Z,14.00
2022-09-20T00:21:18.219Z,14.00
2022-09-20T00:23:41.800Z,14.10
2022-09-20T00:26:06.345Z,14.10
2022-09-20T00:28:33.666Z,14.10
2022-09-20T00:30:57.985Z,14.00
2022-09-20T00:33:21.761Z,14.10
2022-09-20T00:35:44.629Z,14.10
2022-09-20T00:38:34.803Z,14.10
2022-09-20T00:41:02.830Z,14.20
2022-09-20T00:43:39.671Z,14.20
2022-09-20T00:46:05.076Z,14.20
2022-09-20T00:48:32.126Z,14.30
2022-09-20T00:51:01.134Z,14.10
2022-09-20T00:53:30.030Z,14.10
2022-09-20T00:55:59.328Z,14.10
2022-09-20T00:58:24.783Z,14.30
2022-09-20T01:00:52.843Z,14.20
2022-09-20T01:03:20.161Z,14.20
2022-09-20T01:05:45.348Z,14.20
2022-09-20T01:08:09.876Z,14.20
2022-09-20T01:10:34.576Z,14.20
2022-09-20T01:12:58.376Z,14.20
2022-09-20T01:15:23.999Z,14.10
2022-09-20T01:17:53.584Z,14.20
2022-09-20T01:20:22.552Z,14.10
2022-09-20T01:23:08.436Z,14.20
2022-09-20T01:26:00.046Z,14.30
2022-09-20T01:28:25.741Z,14.20
2022-09-20T01:30:56.157Z,14.20
2022-09-20T01:33:29.881Z,14.30
2022-09-20T01:35:56.289Z,14.20
2022-09-20T01:38:36.786Z,14.20
2022-09-20T01:41:06.543Z,14.20
2022-09-20T01:43:37.685Z,14.20
2022-09-20T01:46:16.726Z,14.10
2022-09-20T01:48:41.949Z,14.20
2022-09-20T01:51:36.376Z,14.20
2022-09-20T01:54:58.551Z,14.10
2022-09-20T01:57:52.209Z,14.10
2022-09-20T02:00:18.848Z,14.30
2022-09-20T02:03:29.364Z,14.20
2022-09-20T02:06:28.502Z,14.10
2022-09-20T02:09:35.717Z,14.20
2022-09-20T02:12:32.775Z,14.20
2022-09-20T02:15:10.284Z,14.10
2022-09-20T02:17:47.453Z,14.10
2022-09-20T02:20:34.421Z,14.00
2022-09-20T02:23:26.560Z,14.20
2022-09-20T02:26:11.105Z,14.20
2022-09-20T02:29:08.115Z,14.20
2022-09-20T02:31:54.465Z,14.00
2022-09-20T02:34:39.333Z,14.10
2022-09-20T02:37:25.599Z,14.10
2022-09-20T02:40:05.228Z,14.10
2022-09-20T02:42:36.248Z,14.10
2022-09-20T02:45:09.160Z,14.10
2022-09-20T02:47:37.372Z,14.10
2022-09-20T02:50:15.133Z,14.00
2022-09-20T02:52:49.137Z,14.00
2022-09-20T02:55:19.610Z,14.00
2022-09-20T02:57:57.360Z,14.10
2022-09-20T03:00:25.414Z,14.00
2022-09-20T03:03:08.558Z,14.10
2022-09-20T03:05:47.468Z,14.00
2022-09-20T03:08:27.301Z,14.00
2022-09-20T03:11:00.504Z,14.00
2022-09-20T03:13:44.241Z,14.00
2022-09-20T03:16:19.611Z,14.00
2022-09-20T03:18:53.968Z,14.00
2022-09-20T03:21:41.828Z,14.00
2022-09-20T03:24:19.508Z,14.00
2022-09-20T03:26:54.190Z,14.00
2022-09-20T03:29:36.580Z,14.10
2022-09-20T03:32:18.429Z,14.10
2022-09-20T03:34:54.212Z,14.10
2022-09-20T03:37:48.417Z,14.00
2022-09-20T03:41:13.214Z,14.00
2022-09-20T03:43:57.840Z,13.90
2022-09-20T03:46:28.119Z,13.90
2022-09-20T03:49:32.098Z,14.00
2022-09-20T03:52:06.600Z,14.00
2022-09-20T03:55:04.108Z,13.90
2022-09-20T03:57:54.433Z,13.90
2022-09-20T04:00:34.545Z,14.00
2022-09-20T04:03:30.038Z,14.10
2022-09-20T04:06:11.382Z,14.00
2022-09-20T04:09:09.420Z,14.10
2022-09-20T04:11:45.214Z,13.80
2022-09-20T04:14:26.668Z,14.00
2022-09-20T04:16:59.674Z,14.00
2022-09-20T04:19:32.852Z,14.00
2022-09-20T04:22:01.201Z,14.00
2022-09-20T04:24:36.488Z,14.10
2022-09-20T04:27:05.994Z,14.10
2022-09-20T04:29:39.346Z,14.00
2022-09-20T04:32:15.096Z,14.10
2022-09-20T04:35:02.656Z,14.00
2022-09-20T04:37:33.103Z,14.10
2022-09-20T04:40:11.101Z,14.10
2022-09-20T04:43:27.970Z,14.10
2022-09-20T04:46:55.925Z,14.00
2022-09-20T04:50:29.403Z,14.00
2022-09-20T04:53:52.590Z,14.00
2022-09-20T04:56:22.834Z,14.00
2022-09-20T04:59:02.200Z,14.00
2022-09-20T05:02:03.579Z,13.90
2022-09-20T05:05:29.481Z,14.00
2022-09-20T05:08:56.626Z,14.00
2022-09-20T05:11:55.925Z,13.90
2022-09-20T05:14:57.513Z,13.80
2022-09-20T05:17:38.247Z,13.90
2022-09-20T05:20:44.690Z,14.00
2022-09-20T05:23:40.845Z,14.00
2022-09-20T05:26:15.446Z,14.10
2022-09-20T05:28:51.789Z,14.10
2022-09-20T05:31:26.203Z,14.10
2022-09-20T05:33:57.775Z,14.10
2022-09-20T05:36:34.399Z,14.00
2022-09-20T05:39:09.342Z,13.90
2022-09-20T05:41:42.587Z,13.90
2022-09-20T05:44:19.364Z,13.90
2022-09-20T05:46:59.002Z,13.90
2022-09-20T05:49:40.057Z,14.00
2022-09-20T05:52:27.048Z,13.90
2022-09-20T05:55:23.240Z,14.00
2022-09-20T05:58:09.049Z,14.10
2022-09-20T06:00:40.727Z,13.90
2022-09-20T06:03:17.505Z,14.10
2022-09-20T06:05:53.617Z,14.00
2022-09-20T06:08:50.159Z,14.00
2022-09-20T06:11:45.932Z,14.00
2022-09-20T06:14:23.144Z,14.10
2022-09-20T06:16:55.301Z,14.00
2022-09-20T06:19:34.446Z,14.10
2022-09-20T06:22:04.791Z,14.00
2022-09-20T06:24:38.632Z,14.10
2022-09-20T06:27:08.727Z,14.10
2022-09-20T06:29:35.390Z,13.90
2022-09-20T06:31:58.968Z,14.00
2022-09-20T06:34:24.040Z,14.10
2022-09-20T06:37:09.937Z,13.90
2022-09-20T06:40:02.992Z,14.00
2022-09-20T06:42:27.546Z,14.20
2022-09-20T06:44:51.451Z,14.10
2022-09-20T06:47:16.316Z,14.30
2022-09-20T06:49:42.794Z,14.40
2022-09-20T06:52:07.385Z,14.30
2022-09-20T06:54:31.095Z,14.30
2022-09-20T06:56:55.385Z,14.00
2022-09-20T06:59:18.944Z,14.20
2022-09-20T07:01:43.561Z,14.20
2022-09-20T07:04:07.678Z,14.30
2022-09-20T07:06:34.115Z,14.40
2022-09-20T07:08:57.761Z,14.40
2022-09-20T07:11:23.105Z,14.20
2022-09-20T07:13:51.561Z,14.40
2022-09-20T07:16:16.130Z,14.40
2022-09-20T07:18:40.292Z,14.50
2022-09-20T07:21:06.288Z,14.80
2022-09-20T07:23:31.669Z,14.80
2022-09-20T07:25:57.837Z,14.80
2022-09-20T07:28:21.948Z,14.80
2022-09-20T07:30:45.376Z,14.90
2022-09-20T07:33:09.968Z,14.90
2022-09-20T07:35:33.471Z,14.80
2022-09-20T07:37:59.998Z,14.90
2022-09-20T07:40:25.764Z,14.80
2022-09-20T07:42:52.022Z,14.80
2022-09-20T07:45:19.199Z,14.90
2022-09-20T07:47:44.928Z,14.90
2022-09-20T07:50:09.917Z,15.10
2022-09-20T07:52:33.554Z,15.20
2022-09-20T07:54:57.516Z,15.30
2022-09-20T07:57:23.414Z,15.30
2022-09-20T07:59:46.870Z,15.30
2022-09-20T08:02:15.549Z,15.20
2022-09-20T08:04:39.082Z,15.20
2022-09-20T08:07:02.520Z,15.30
2022-09-20T08:09:26.113Z,15.30
2022-09-20T08:11:49.627Z,15.10
2022-09-20T08:14:18.100Z,15.20
2022-09-20T08:16:43.855Z,15.10
2022-09-20T08:19:07.413Z,15.00
2022-09-20T08:21:34.970Z,15.00
2022-09-20T08:23:59.650Z,15.00
2022-09-20T08:26:25.482Z,15.20
2022-09-20T08:28:53.627Z,15.20
2022-09-20T08:31:20.709Z,15.10
2022-09-20T08:33:45.795Z,15.20
2022-09-20T08:36:13.625Z,15.30
2022-09-20T08:41:26.362Z,15.40
2022-09-20T08:43:55.256Z,15.60
2022-09-20T08:46:24.919Z,15.70
2022-09-20T08:48:48.568Z,15.90
2022-09-20T08:51:22.721Z,15.90
2022-09-20T08:53:50.063Z,15.90
2022-09-20T08:56:13.618Z,16.30
2022-09-20T08:58:38.456Z,16.30
2022-09-20T09:01:02.348Z,16.30
2022-09-20T09:03:29.331Z,16.20
2022-09-20T09:05:56.655Z,16.20
2022-09-20T09:08:22.290Z,16.10
2022-09-20T09:10:54.218Z,16.10
2022-09-20T09:13:27.543Z,16.20
2022-09-20T09:15:57.746Z,16.10
2022-09-20T09:18:21.581Z,16.00
2022-09-20T09:20:49.057Z,16.20
2022-09-20T09:23:26.323Z,16.20
2022-09-20T09:25:49.924Z,16.10
2022-09-20T09:28:16.560Z,16.10
2022-09-20T09:30:43.297Z,16.20
2022-09-20T09:33:28.311Z,16.10
2022-09-20T09:36:01.774Z,16.00
2022-09-20T09:38:28.343Z,16.00
2022-09-20T09:40:54.829Z,16.10
2022-09-20T09:43:27.070Z,16.30
2022-09-20T09:45:51.337Z,16.10
2022-09-20T09:48:22.547Z,16.10
2022-09-20T09:50:47.685Z,16.20
2022-09-20T09:53:16.550Z,15.90
2022-09-20T09:56:04.639Z,16.10
2022-09-20T09:58:45.093Z,16.30
2022-09-20T10:01:33.091Z,15.90
2022-09-20T10:04:07.235Z,15.70
2022-09-20T10:06:37.532Z,15.60
2022-09-20T10:09:19.712Z,15.40
2022-09-20T10:11:58.794Z,15.50
2022-09-20T10:14:39.470Z,15.50
2022-09-20T10:17:20.862Z,15.40
2022-09-20T10:20:07.712Z,15.40
2022-09-20T10:22:55.798Z,15.30
2022-09-20T10:25:41.142Z,15.50
2022-09-20T10:28:23.135Z,15.60
2022-09-20T10:30:57.036Z,15.90
2022-09-20T10:33:34.353Z,16.00
2022-09-20T10:36:21.140Z,16.00
2022-09-20T10:38:54.316Z,16.20
2022-09-20T10:41:55.592Z,16.10
2022-09-20T10:44:40.385Z,16.10
2022-09-20T10:47:14.160Z,16.10
2022-09-20T10:49:48.474Z,16.00
2022-09-20T10:52:50.070Z,15.90
2022-09-20T10:55:40.321Z,15.80
2022-09-20T10:58:52.001Z,16.20
2022-09-20T11:01:25.191Z,16.20
2022-09-20T11:04:28.372Z,16.10
2022-09-20T11:07:02.784Z,16.20
2022-09-20T11:09:32.609Z,16.30
2022-09-20T11:12:05.563Z,16.40
2022-09-20T11:14:37.217Z,16.50
2022-09-20T11:17:09.448Z,16.40
2022-09-20T11:19:48.841Z,16.60
2022-09-20T11:22:18.903Z,16.50
2022-09-20T11:24:47.892Z,16.60
2022-09-20T11:27:19.563Z,16.70
2022-09-20T11:29:51.943Z,16.70
2022-09-20T11:32:23.273Z,16.50
2022-09-20T11:34:55.417Z,16.70
2022-09-20T11:37:21.776Z,16.80
2022-09-20T11:39:52.230Z,16.90
2022-09-20T11:42:20.367Z,16.60
2022-09-20T11:44:46.076Z,16.80
2022-09-20T11:47:36.527Z,16.80
2022-09-20T11:50:58.011Z,16.50
2022-09-20T11:53:54.664Z,16.70
2022-09-20T11:56:25.071Z,16.80
2022-09-20T11:58:51.960Z,16.90
2022-09-20T12:01:28.255Z,17.00
2022-09-20T12:04:27.967Z,17.10
2022-09-20T12:06:42.601Z,17.00
2022-09-20T12:09:22.888Z,17.10
2022-09-20T12:11:47.263Z,17.00
2022-09-20T12:14:21.474Z,17.10
2022-09-20T12:16:48.496Z,17.20
2022-09-20T12:19:15.120Z,17.20
2022-09-20T12:22:29.589Z,17.30
2022-09-20T12:25:40.673Z,17.50
2022-09-20T12:28:05.367Z,17.40
2022-09-20T12:30:34.195Z,17.40
2022-09-20T12:33:02.462Z,17.60
2022-09-20T12:36:15.899Z,17.80
2022-09-20T12:38:48.238Z,17.70
2022-09-20T12:41:23.104Z,17.60
2022-09-20T12:44:03.648Z,17.50
2022-09-20T12:46:52.618Z,17.70
2022-09-20T12:50:08.645Z,17.90
2022-09-20T12:53:01.181Z,17.60
2022-09-20T12:55:43.756Z,17.60
2022-09-20T12:58:24.967Z,17.90
2022-09-20T13:00:52.399Z,17.80
2022-09-20T13:03:34.859Z,18.10
2022-09-20T13:06:26.715Z,17.70
2022-09-20T13:08:55.431Z,17.80
2022-09-20T13:11:22.368Z,18.00
2022-09-20T13:13:50.335Z,18.00
2022-09-20T13:16:23.356Z,18.00
2022-09-20T13:18:47.994Z,18.10
2022-09-20T13:21:12.084Z,18.00
2022-09-20T13:23:50.060Z,17.90
2022-09-20T13:26:14.883Z,17.70
2022-09-20T13:28:48.184Z,17.50
2022-09-20T13:31:30.155Z,17.40
2022-09-20T13:33:54.379Z,17.30
2022-09-20T13:36:27.033Z,17.40
2022-09-20T13:38:51.912Z,17.50
2022-09-20T13:41:16.758Z,17.40
2022-09-20T13:43:42.966Z,17.60
2022-09-20T13:46:11.665Z,17.50
2022-09-20T13:48:35.503Z,17.50
2022-09-20T13:50:59.891Z,17.60
2022-09-20T13:53:42.327Z,17.50
2022-09-20T13:56:13.152Z,17.20
2022-09-20T13:58:38.277Z,17.10
2022-09-20T14:01:05.696Z,17.10
2022-09-20T14:03:31.049Z,17.10
2022-09-20T14:05:57.956Z,17.20
2022-09-20T14:08:26.076Z,17.10
2022-09-20T14:10:52.529Z,17.20
2022-09-20T14:13:19.776Z,17.30
2022-09-20T14:15:46.862Z,17.00
2022-09-20T14:18:16.147Z,17.00
2022-09-20T14:20:41.295Z,17.20
2022-09-20T14:23:06.098Z,17.20
2022-09-20T14:25:30.219Z,17.30
2022-09-20T14:28:20.421Z,17.20
2022-09-20T14:30:44.016Z,17.20
2022-09-20T14:33:08.553Z,17.40
2022-09-20T14:35:33.249Z,17.40
2022-09-20T14:38:01.372Z,17.30
2022-09-20T14:40:28.456Z,17.20
2022-09-20T14:42:57.254Z,17.00
2022-09-20T14:45:28.416Z,17.00
2022-09-20T14:48:00.136Z,17.00
2022-09-20T14:50:30.605Z,17.10
2022-09-20T14:53:26.905Z,17.00
2022-09-20T14:56:00.903Z,16.90
2022-09-20T14:58:26.214Z,17.10
2022-09-20T15:00:54.604Z,16.90
2022-09-20T15:03:26.262Z,17.30
2022-09-20T15:05:50.954Z,17.30
2022-09-20T15:08:15.792Z,17.40
2022-09-20T15:10:39.419Z,17.60
2022-09-20T15:13:03.027Z,17.60
2022-09-20T15:15:28.697Z,17.30
2022-09-20T15:17:53.775Z,17.30
2022-09-20T15:20:24.163Z,17.30
2022-09-20T15:22:49.162Z,17.40
2022-09-20T15:25:18.149Z,17.40
2022-09-20T15:27:44.491Z,17.40
2022-09-20T15:30:12.499Z,17.30
2022-09-20T15:32:38.800Z,17.30
2022-09-20T15:35:07.305Z,17.10
2022-09-20T15:37:30.878Z,17.20
2022-09-20T15:39:54.384Z,17.20
2022-09-20T15:42:21.371Z,17.30
2022-09-20T15:44:44.845Z,17.40
2022-09-20T15:47:10.102Z,17.20
2022-09-20T15:49:35.276Z,17.30
2022-09-20T15:52:00.413Z,17.30
2022-09-20T15:54:23.942Z,17.00
2022-09-20T15:56:47.466Z,17.20
2022-09-20T15:59:14.674Z,17.20
2022-09-20T16:01:40.747Z,17.00
2022-09-20T16:04:08.097Z,17.20
2022-09-20T16:06:34.098Z,16.90
2022-09-20T16:08:59.150Z,16.90
2022-09-20T16:11:23.955Z,16.90
2022-09-20T16:13:47.726Z,17.00
2022-09-20T16:16:15.779Z,16.90
2022-09-20T16:18:56.909Z,17.00
2022-09-20T16:21:21.435Z,17.10
2022-09-20T16:23:49.928Z,17.00
2022-09-20T16:26:14.889Z,17.00
2022-09-20T16:28:38.502Z,16.90
2022-09-20T16:31:02.115Z,17.10
2022-09-20T16:33:25.729Z,17.00
2022-09-20T16:35:49.580Z,17.00
2022-09-20T16:38:14.081Z,16.90
2022-09-20T16:40:40.302Z,16.80
2022-09-20T16:43:06.201Z,16.80
2022-09-20T16:45:29.857Z,16.90
2022-09-20T16:47:57.314Z,16.90
2022-09-20T16:50:20.900Z,16.80
2022-09-20T16:52:44.803Z,16.80
2022-09-20T16:55:11.079Z,16.70
2022-09-20T16:57:36.814Z,16.70
2022-09-20T17:00:01.805Z,16.80
2022-09-20T17:02:25.362Z,16.90
2022-09-20T17:04:49.268Z,17.00
2022-09-20T17:07:12.949Z,17.10
2022-09-20T17:09:36.530Z,16.80
2022-09-20T17:12:01.299Z,16.90
2022-09-20T17:14:25.496Z,16.80
2022-09-20T17:16:51.472Z,16.70
2022-09-20T17:19:18.406Z,16.70
2022-09-20T17:21:49.217Z,16.70
2022-09-20T17:24:13.804Z,16.80
2022-09-20T17:26:40.355Z,16.70
2022-09-20T17:29:07.718Z,16.70
2022-09-20T17:31:34.605Z,16.50
2022-09-20T17:34:00.898Z,16.50
2022-09-20T17:36:24.666Z,16.30
2022-09-20T17:38:50.028Z,16.30
2022-09-20T17:41:17.098Z,16.20
2022-09-20T17:43:41.910Z,16.20
2022-09-20T17:46:07.955Z,16.10
2022-09-20T17:48:34.302Z,16.10
2022-09-20T17:50:59.725Z,16.00
2022-09-20T17:53:24.294Z,15.80
2022-09-20T17:55:55.073Z,15.90
2022-09-20T17:58:18.921Z,15.80
2022-09-20T18:00:42.589Z,15.70
2022-09-20T18:03:06.182Z,15.70
2022-09-20T18:05:29.567Z,15.70
2022-09-20T18:07:54.961Z,15.50
2022-09-20T18:10:18.378Z,15.40
2022-09-20T18:12:41.811Z,15.40
2022-09-20T18:15:06.758Z,15.30
2022-09-20T18:17:34.588Z,15.20
2022-09-20T18:19:58.044Z,15.20
2022-09-20T18:22:21.612Z,15.10
2022-09-20T18:24:46.515Z,15.10
2022-09-20T18:27:10.014Z,15.00
2022-09-20T18:29:37.489Z,15.00
2022-09-20T18:32:01.334Z,14.90
2022-09-20T18:34:26.777Z,14.90
2022-09-20T18:36:53.521Z,14.80
2022-09-20T18:39:17.065Z,14.80
2022-09-20T18:41:42.833Z,14.90
2022-09-20T18:44:08.223Z,14.80
2022-09-20T18:46:33.313Z,14.70
2022-09-20T18:48:59.982Z,14.70
2022-09-20T18:51:24.957Z,14.80
2022-09-20T18:53:49.187Z,14.80
2022-09-20T18:56:23.668Z,14.70
2022-09-20T18:58:49.235Z,14.60
2022-09-20T19:02:11.007Z,14.60
2022-09-20T19:04:53.299Z,14.50
2022-09-20T19:07:25.669Z,14.60
2022-09-20T19:09:57.429Z,14.40
2022-09-20T19:12:35.626Z,14.40
2022-09-20T19:15:16.398Z,14.50
2022-09-20T19:18:02.040Z,14.30
2022-09-20T19:20:33.022Z,14.30
2022-09-20T19:23:11.853Z,14.30
2022-09-20T19:25:44.146Z,14.30
2022-09-20T19:28:10.308Z,14.20
2022-09-20T19:30:36.373Z,14.10
2022-09-20T19:33:02.749Z,14.10
2022-09-20T19:35:34.917Z,14.00
2022-09-20T19:38:05.977Z,14.10
2022-09-20T19:40:42.048Z,14.00
2022-09-20T19:43:25.034Z,14.00
2022-09-20T19:46:00.266Z,14.00
2022-09-20T19:48:35.451Z,13.90
2022-09-20T19:51:03.163Z,13.90
2022-09-20T19:53:28.827Z,13.80
2022-09-20T19:55:58.204Z,13.90
2022-09-20T19:58:23.522Z,14.00
2022-09-20T20:00:49.913Z,13.90
2022-09-20T20:03:14.551Z,13.90
2022-09-20T20:05:38.451Z,13.80
2022-09-20T20:08:17.188Z,13.80
2022-09-20T20:10:53.571Z,13.90
2022-09-20T20:13:47.039Z,13.80
2022-09-20T20:16:22.111Z,13.70
2022-09-20T20:19:06.926Z,13.80
2022-09-20T20:21:46.414Z,13.80
2022-09-20T20:24:25.838Z,13.80
2022-09-20T20:26:49.328Z,13.80
2022-09-20T20:29:13.016Z,13.80
2022-09-20T20:31:38.071Z,13.80
2022-09-20T20:34:02.194Z,13.80
2022-09-20T20:36:25.658Z,13.80
2022-09-20T20:38:52.744Z,13.80
2022-09-20T20:41:18.385Z,13.90
2022-09-20T20:43:43.884Z,13.60
2022-09-20T20:46:09.214Z,13.60
2022-09-20T20:48:34.792Z,13.60
2022-09-20T20:51:08.114Z,13.70
2022-09-20T20:53:33.638Z,13.80
2022-09-20T20:56:02.764Z,13.70
2022-09-20T20:58:26.228Z,13.80
2022-09-20T21:00:49.729Z,13.80
2022-09-20T21:03:13.121Z,13.70
2022-09-20T21:05:37.951Z,13.50
2022-09-20T21:08:02.213Z,13.50
2022-09-20T21:10:25.870Z,13.50
2022-09-20T21:12:53.111Z,13.50
2022-09-20T21:15:17.147Z,13.60
2022-09-20T21:17:42.448Z,13.50
2022-09-20T21:20:06.593Z,13.40
2022-09-20T21:22:33.250Z,13.40
2022-09-20T21:24:56.998Z,13.40
2022-09-20T21:27:20.923Z,13.40
2022-09-20T21:29:44.411Z,13.40
2022-09-20T21:32:07.874Z,13.60
2022-09-20T21:34:31.443Z,13.70
2022-09-20T21:36:55.451Z,13.50
2022-09-20T21:39:20.261Z,13.60
2022-09-20T21:41:44.206Z,13.70
2022-09-20T21:44:09.786Z,13.70
2022-09-20T21:46:35.123Z,13.70
2022-09-20T21:49:01.100Z,13.80
2022-09-20T21:51:26.001Z,13.80
2022-09-20T21:53:50.396Z,13.70
2022-09-20T21:56:18.209Z,13.70
2022-09-20T21:58:42.121Z,13.60
2022-09-20T22:01:10.109Z,13.70
2022-09-20T22:03:35.501Z,13.50
2022-09-20T22:06:06.026Z,13.50
2022-09-20T22:08:29.556Z,13.40
2022-09-20T22:10:59.992Z,13.40
2022-09-20T22:13:25.161Z,13.50
2022-09-20T22:15:48.819Z,13.40
2022-09-20T22:18:12.257Z,13.30
2022-09-20T22:20:36.191Z,13.30
2022-09-20T22:22:59.945Z,13.20
2022-09-20T22:25:24.264Z,13.30
2022-09-20T22:27:47.934Z,13.10
2022-09-20T22:30:14.290Z,13.20
2022-09-20T22:32:37.787Z,13.20
2022-09-20T22:35:01.274Z,13.00
2022-09-20T22:37:24.832Z,13.00
2022-09-20T22:39:48.634Z,13.00
2022-09-20T22:42:12.114Z,12.90
2022-09-20T22:44:35.922Z,13.00
2022-09-20T22:47:00.759Z,12.90
2022-09-20T22:49:24.196Z,12.80
2022-09-20T22:51:48.702Z,12.70
2022-09-20T22:54:13.574Z,12.70
2022-09-20T22:56:37.958Z,12.80
2022-09-20T22:59:05.720Z,12.80
2022-09-20T23:01:31.720Z,12.70
2022-09-20T23:03:59.721Z,12.80
2022-09-20T23:06:25.648Z,12.70
2022-09-20T23:08:59.105Z,12.60
2022-09-20T23:11:22.748Z,12.70
2022-09-20T23:13:47.112Z,12.60
2022-09-20T23:16:17.310Z,12.60
2022-09-20T23:18:41.166Z,12.50
2022-09-20T23:21:06.343Z,12.50
2022-09-20T23:23:30.774Z,12.60
2022-09-20T23:25:55.613Z,12.40
2022-09-20T23:28:19.098Z,12.50
2022-09-20T23:30:42.567Z,12.40
2022-09-20T23:33:06.103Z,12.40
2022-09-20T23:35:29.645Z,12.40
2022-09-20T23:37:56.924Z,12.40
2022-09-20T23:40:20.527Z,12.40
2022-09-20T23:42:44.044Z,12.30
2022-09-20T23:45:09.692Z,12.20
2022-09-20T23:47:33.159Z,12.20
2022-09-20T23:49:56.676Z,12.30
2022-09-20T23:52:20.196Z,12.20
2022-09-20T23:54:44.958Z,12.30
2022-09-20T23:57:08.489Z,12.30
2022-09-20T23:59:32.666Z,12.30
